Time;durP1;ratioP1;P1;durP2;ratioP2;P2;SDS_P1;SDS_P2;PMS_P1;PMS_P2;Temp;Humidity;BMP_temperature;BMP_pressure;BME280_temperature;BME280_humidity;BME280_pressure;Samples;Min_cycle;Max_cycle;Signal;HPM_P1;HPM_P2
2021/05/08 00:01:05;;;;;;;1.27;1.13;;;16.90;50.40;;;;;;5057066;28;20241;-66
2021/05/08 00:03:30;;;;;;;1.45;1.35;;;16.90;50.50;;;;;;5055446;28;20285;-65
2021/05/08 00:05:56;;;;;;;1.42;1.17;;;16.90;50.50;;;;;;5055772;28;20203;-65
2021/05/08 00:08:21;;;;;;;1.35;1.10;;;16.90;50.40;;;;;;5054841;28;20266;-65
2021/05/08 00:10:47;;;;;;;1.55;1.35;;;16.90;50.50;;;;;;5055238;28;20201;-64
2021/05/08 00:13:12;;;;;;;1.20;1.10;;;16.90;50.40;;;;;;5056573;28;20233;-63
2021/05/08 00:15:38;;;;;;;1.20;1.10;;;16.80;50.40;;;;;;5055198;28;20969;-63
2021/05/08 00:18:04;;;;;;;1.40;1.30;;;16.80;50.40;;;;;;5056515;28;20514;-63
2021/05/08 00:20:29;;;;;;;1.60;1.30;;;16.80;50.40;;;;;;5055249;28;20718;-64
2021/05/08 00:22:55;;;;;;;1.63;1.20;;;16.80;50.40;;;;;;5054149;28;20171;-64
2021/05/08 00:25:20;;;;;;;1.67;1.35;;;16.80;50.40;;;;;;5055809;28;20175;-64
2021/05/08 00:27:46;;;;;;;1.60;1.40;;;16.80;50.40;;;;;;5055437;28;20194;-64
2021/05/08 00:30:12;;;;;;;1.60;1.30;;;16.80;50.40;;;;;;5054301;28;20186;-63
2021/05/08 00:32:37;;;;;;;1.85;1.00;;;16.80;50.40;;;;;;5054705;28;20637;-64
2021/05/08 00:35:03;;;;;;;1.23;1.13;;;16.80;50.50;;;;;;5054808;28;20225;-63
2021/05/08 00:37:28;;;;;;;1.60;1.00;;;16.80;50.40;;;;;;5054665;28;20183;-64
2021/05/08 00:39:54;;;;;;;1.40;1.30;;;16.70;50.40;;;;;;5054703;28;20669;-65
2021/05/08 00:42:19;;;;;;;1.33;1.23;;;16.70;50.40;;;;;;5054725;28;20257;-65
2021/05/08 00:44:45;;;;;;;1.33;1.23;;;16.70;50.40;;;;;;5053871;28;20562;-65
2021/05/08 00:47:11;;;;;;;2.50;1.33;;;16.70;50.40;;;;;;5054750;28;20179;-63
2021/05/08 00:49:38;;;;;;;1.60;1.10;;;16.70;50.40;;;;;;5054825;28;20178;-64
2021/05/08 00:52:04;;;;;;;1.30;1.20;;;16.70;50.40;;;;;;5054354;28;20236;-64
2021/05/08 00:54:30;;;;;;;1.13;1.08;;;16.70;50.40;;;;;;5037657;28;20186;-64
2021/05/08 00:56:55;;;;;;;1.48;1.38;;;16.70;50.40;;;;;;5054257;28;20175;-65
2021/05/08 00:59:21;;;;;;;1.33;1.23;;;16.70;50.40;;;;;;5053792;28;20174;-64
2021/05/08 01:01:46;;;;;;;1.85;1.10;;;16.70;50.40;;;;;;5054737;28;20554;-66
2021/05/08 01:04:12;;;;;;;1.52;1.10;;;16.70;50.40;;;;;;5055286;28;20171;-65
2021/05/08 01:06:39;;;;;;;1.25;1.00;;;16.60;50.40;;;;;;5036182;28;20175;-65
2021/05/08 01:09:05;;;;;;;1.30;1.10;;;16.60;50.40;;;;;;5054239;28;20175;-65
2021/05/08 01:11:30;;;;;;;1.35;1.13;;;16.70;50.40;;;;;;5054067;28;20229;-63
2021/05/08 01:13:56;;;;;;;1.30;1.02;;;16.60;50.40;;;;;;5036153;28;20168;-63
2021/05/08 01:16:21;;;;;;;1.40;1.30;;;16.60;50.40;;;;;;5036865;28;20181;-63
2021/05/08 01:18:51;;;;;;;1.40;1.30;;;16.60;50.40;;;;;;5035514;28;20185;-63
2021/05/08 01:21:17;;;;;;;1.63;1.10;;;16.60;50.40;;;;;;5054379;28;20577;-64
2021/05/08 01:23:43;;;;;;;1.73;1.40;;;16.60;50.40;;;;;;5053773;28;20178;-63
2021/05/08 01:26:08;;;;;;;1.25;1.15;;;16.60;50.40;;;;;;5053419;28;20555;-64
2021/05/08 01:28:34;;;;;;;1.52;0.98;;;16.60;50.40;;;;;;5054471;28;20178;-62
2021/05/08 01:30:59;;;;;;;1.85;1.20;;;16.60;50.40;;;;;;5054383;28;20637;-63
2021/05/08 01:33:25;;;;;;;0.98;0.98;;;16.60;51.00;;;;;;5053375;28;20172;-63
2021/05/08 01:35:53;;;;;;;1.58;1.17;;;16.60;50.40;;;;;;5053386;28;20189;-63
2021/05/08 01:38:19;;;;;;;1.20;1.10;;;16.50;50.40;;;;;;5053653;28;20183;-65
2021/05/08 01:40:44;;;;;;;1.17;0.90;;;16.50;50.40;;;;;;5035043;28;20294;-64
2021/05/08 01:43:10;;;;;;;2.08;1.52;;;16.50;50.50;;;;;;5054095;28;20242;-65
2021/05/08 01:45:35;;;;;;;1.23;1.13;;;16.50;50.30;;;;;;5053354;28;20223;-64
2021/05/08 01:48:02;;;;;;;1.15;1.15;;;16.50;50.40;;;;;;5052807;28;20182;-64
2021/05/08 01:50:27;;;;;;;1.17;1.08;;;16.50;50.50;;;;;;5035911;28;20179;-64
2021/05/08 01:52:53;;;;;;;1.30;1.20;;;16.50;50.40;;;;;;5053916;28;20167;-63
2021/05/08 01:55:20;;;;;;;1.15;1.10;;;16.50;50.40;;;;;;5053203;28;20178;-64
2021/05/08 01:57:51;;;;;;;2.47;1.58;;;16.50;50.50;;;;;;5053515;28;20179;-64
2021/05/08 02:00:18;;;;;;;1.10;1.00;;;16.50;50.50;;;;;;5053408;28;20657;-65
2021/05/08 02:02:44;;;;;;;1.10;1.10;;;16.50;50.50;;;;;;5052321;28;20667;-65
2021/05/08 02:05:10;;;;;;;1.60;1.40;;;16.50;50.50;;;;;;5054092;28;20175;-64
2021/05/08 02:07:35;;;;;;;1.27;1.10;;;16.50;50.50;;;;;;5052892;28;20560;-65
2021/05/08 02:10:03;;;;;;;1.40;0.98;;;16.40;50.40;;;;;;5052260;28;20205;-65
2021/05/08 02:12:30;;;;;;;1.30;1.20;;;16.40;50.40;;;;;;5053396;28;20183;-64
2021/05/08 02:14:56;;;;;;;1.40;1.30;;;16.40;50.40;;;;;;5052557;28;20258;-63
2021/05/08 02:17:21;;;;;;;1.40;1.30;;;16.40;50.50;;;;;;5053581;28;20261;-63
2021/05/08 02:19:47;;;;;;;1.35;1.17;;;16.40;50.50;;;;;;5053595;28;20218;-64
2021/05/08 02:22:12;;;;;;;1.17;1.08;;;16.40;50.40;;;;;;5052716;28;20175;-64
2021/05/08 02:24:38;;;;;;;1.73;1.17;;;16.40;50.50;;;;;;5052569;28;20175;-65
2021/05/08 02:27:04;;;;;;;1.33;1.25;;;16.40;50.50;;;;;;5053000;28;20278;-64
2021/05/08 02:29:29;;;;;;;1.48;1.10;;;16.40;50.50;;;;;;5035284;28;20178;-63
2021/05/08 02:31:55;;;;;;;1.40;1.30;;;16.40;50.50;;;;;;5053630;28;20167;-65
2021/05/08 02:34:20;;;;;;;1.63;1.27;;;16.40;50.60;;;;;;5053224;28;20182;-64
2021/05/08 02:36:46;;;;;;;1.30;1.20;;;16.40;50.50;;;;;;5051902;28;20167;-66
2021/05/08 02:39:11;;;;;;;1.30;1.20;;;16.40;50.50;;;;;;5052928;28;20236;-65
2021/05/08 02:41:37;;;;;;;1.55;1.45;;;16.40;50.60;;;;;;5053439;28;20221;-66
2021/05/08 02:44:03;;;;;;;1.48;1.38;;;16.40;50.60;;;;;;5053385;28;20629;-67
2021/05/08 02:46:28;;;;;;;1.55;1.45;;;16.30;50.60;;;;;;5053621;28;20194;-66
2021/05/08 02:48:54;;;;;;;2.40;1.30;;;16.30;50.60;;;;;;5053186;28;20175;-66
2021/05/08 02:51:20;;;;;;;2.20;1.45;;;16.30;50.60;;;;;;5052138;28;20178;-64
2021/05/08 02:53:45;;;;;;;1.25;1.20;;;16.30;50.60;;;;;;5053169;28;20606;-64
2021/05/08 02:56:11;;;;;;;1.67;1.20;;;16.30;50.60;;;;;;5053875;28;20581;-64
2021/05/08 02:58:36;;;;;;;2.63;1.40;;;16.30;50.60;;;;;;5052557;28;20206;-65
2021/05/08 03:01:02;;;;;;;1.35;1.25;;;16.30;50.60;;;;;;5053034;28;20306;-65
2021/05/08 03:03:27;;;;;;;1.38;1.27;;;16.30;50.60;;;;;;5052769;28;20183;-65
2021/05/08 03:05:54;;;;;;;1.30;1.23;;;16.30;50.60;;;;;;5051994;28;20207;-66
2021/05/08 03:08:19;;;;;;;1.60;1.33;;;16.30;50.60;;;;;;5053475;28;20539;-65
2021/05/08 03:10:45;;;;;;;1.58;1.30;;;16.30;50.60;;;;;;5053127;28;20179;-65
2021/05/08 03:13:11;;;;;;;1.33;1.30;;;16.30;50.60;;;;;;5051936;28;20186;-63
2021/05/08 03:15:36;;;;;;;1.33;1.23;;;16.30;50.60;;;;;;5052326;28;20710;-64
2021/05/08 03:18:03;;;;;;;1.50;1.40;;;16.30;50.60;;;;;;5052933;28;20194;-64
2021/05/08 03:20:28;;;;;;;1.60;1.50;;;16.30;50.60;;;;;;5054985;28;20721;-65
2021/05/08 03:22:54;;;;;;;1.60;1.35;;;16.20;50.60;;;;;;5056549;28;20171;-65
2021/05/08 03:25:19;;;;;;;1.38;1.27;;;16.20;50.60;;;;;;5055667;28;20248;-64
2021/05/08 03:27:45;;;;;;;2.20;1.75;;;16.20;50.60;;;;;;5056387;28;20221;-64
2021/05/08 03:30:11;;;;;;;1.40;1.30;;;16.20;50.70;;;;;;5056248;28;20597;-63
2021/05/08 03:32:36;;;;;;;1.40;1.30;;;16.20;50.70;;;;;;5056094;28;20262;-64
2021/05/08 03:35:02;;;;;;;1.95;1.58;;;16.20;50.70;;;;;;5056144;28;20217;-65
2021/05/08 03:37:27;;;;;;;1.60;1.50;;;16.20;50.70;;;;;;5056319;28;20175;-65
2021/05/08 03:39:53;;;;;;;1.90;1.80;;;16.20;50.70;;;;;;5055163;28;20607;-66
2021/05/08 03:42:18;;;;;;;1.60;1.50;;;16.20;50.70;;;;;;5056113;28;20214;-66
2021/05/08 03:44:44;;;;;;;2.15;1.70;;;16.20;50.70;;;;;;5056025;28;20171;-65
2021/05/08 03:47:09;;;;;;;1.60;1.50;;;16.20;50.70;;;;;;5055706;28;20229;-65
2021/05/08 03:49:36;;;;;;;1.55;1.40;;;16.20;50.70;;;;;;5055684;28;20175;-65
2021/05/08 03:52:03;;;;;;;1.58;1.48;;;16.20;50.70;;;;;;5055933;28;20250;-64
2021/05/08 03:54:28;;;;;;;1.65;1.55;;;16.20;50.70;;;;;;5055219;28;20179;-64
2021/05/08 03:56:55;;;;;;;1.52;1.40;;;16.20;50.70;;;;;;5056291;28;20175;-65
2021/05/08 03:59:20;;;;;;;1.63;1.52;;;16.20;50.80;;;;;;5056895;28;20224;-65
2021/05/08 04:01:46;;;;;;;1.75;1.65;;;16.10;51.30;;;;;;5054837;28;20577;-66
2021/05/08 04:04:11;;;;;;;1.73;1.63;;;16.20;50.70;;;;;;5055772;28;20181;-66
2021/05/08 04:06:37;;;;;;;1.67;1.58;;;16.20;50.80;;;;;;5055300;28;20194;-65
2021/05/08 04:09:03;;;;;;;1.67;1.58;;;16.20;50.80;;;;;;5055496;28;20167;-66
2021/05/08 04:11:29;;;;;;;1.88;1.75;;;16.20;50.80;;;;;;5056517;28;20194;-63
2021/05/08 04:13:54;;;;;;;1.70;1.60;;;16.10;50.80;;;;;;5055322;28;20179;-63
2021/05/08 04:16:20;;;;;;;1.65;1.55;;;16.10;50.80;;;;;;5054821;28;20179;-65
2021/05/08 04:18:45;;;;;;;1.88;1.60;;;16.10;50.80;;;;;;5054970;28;20171;-65
2021/05/08 04:21:11;;;;;;;1.77;1.67;;;16.10;50.80;;;;;;5055544;28;20281;-65
2021/05/08 04:23:36;;;;;;;1.92;1.83;;;16.10;50.80;;;;;;5055015;28;20237;-64
2021/05/08 04:26:02;;;;;;;1.92;1.83;;;16.10;50.80;;;;;;5056161;28;20206;-64
2021/05/08 04:28:27;;;;;;;1.88;1.50;;;16.10;50.80;;;;;;5055898;28;20167;-63
2021/05/08 04:30:53;;;;;;;1.88;1.75;;;16.10;50.80;;;;;;5053748;28;20218;-64
2021/05/08 04:33:19;;;;;;;1.60;1.50;;;16.10;50.90;;;;;;5055317;28;20268;-65
2021/05/08 04:35:44;;;;;;;1.70;1.60;;;16.10;50.90;;;;;;5054800;28;20175;-64
2021/05/08 04:38:10;;;;;;;1.77;1.67;;;16.10;50.90;;;;;;5055461;28;20186;-66
2021/05/08 04:40:35;;;;;;;1.70;1.60;;;16.10;50.90;;;;;;5054776;28;20305;-65
2021/05/08 04:43:01;;;;;;;1.70;1.60;;;16.10;51.50;;;;;;5054300;28;20510;-67
2021/05/08 04:45:26;;;;;;;1.60;1.50;;;16.10;50.90;;;;;;5054987;28;20203;-66
2021/05/08 04:47:56;;;;;;;1.60;1.50;;;16.10;50.90;;;;;;5055259;28;20182;-65
2021/05/08 04:50:22;;;;;;;1.73;1.60;;;16.10;51.00;;;;;;5054766;28;20210;-65
2021/05/08 04:52:48;;;;;;;1.63;1.52;;;16.00;50.90;;;;;;5055117;28;20581;-64
2021/05/08 04:55:13;;;;;;;2.15;1.38;;;16.00;50.90;;;;;;5054745;28;20649;-65
2021/05/08 04:57:39;;;;;;;1.50;1.40;;;16.00;50.90;;;;;;5053978;28;20179;-63
2021/05/08 05:00:05;;;;;;;1.60;1.50;;;16.10;51.00;;;;;;5037458;28;20203;-65
2021/05/08 05:02:30;;;;;;;1.70;1.60;;;16.10;50.90;;;;;;5054850;28;20240;-65
2021/05/08 05:04:56;;;;;;;1.60;1.50;;;16.10;50.80;;;;;;5053637;28;20175;-65
2021/05/08 05:07:21;;;;;;;1.80;1.70;;;16.20;51.00;;;;;;5054592;28;20534;-66
2021/05/08 05:09:47;;;;;;;1.80;1.50;;;16.30;50.90;;;;;;5054164;28;20171;-65
2021/05/08 05:12:12;;;;;;;1.60;1.50;;;16.60;50.80;;;;;;5054214;28;20178;-64
2021/05/08 05:14:39;;;;;;;1.95;1.38;;;16.90;50.70;;;;;;5054580;28;20175;-64
2021/05/08 05:17:05;;;;;;;1.60;1.50;;;17.20;50.10;;;;;;5037148;28;20230;-64
2021/05/08 05:19:30;;;;;;;1.27;1.17;;;17.70;49.10;;;;;;5053135;28;20223;-64
2021/05/08 05:21:56;;;;;;;1.25;1.10;;;18.10;48.50;;;;;;5053845;28;20214;-64
2021/05/08 05:24:21;;;;;;;2.35;1.50;;;18.30;48.10;;;;;;5053993;28;20182;-65
2021/05/08 05:26:47;;;;;;;1.50;1.40;;;18.60;47.70;;;;;;5053069;28;20174;-65
2021/05/08 05:29:12;;;;;;;1.17;1.08;;;18.70;47.40;;;;;;5054484;28;20216;-63
2021/05/08 05:31:38;;;;;;;1.67;1.20;;;18.80;47.30;;;;;;5054200;28;20660;-63
2021/05/08 05:34:04;;;;;;;1.25;1.15;;;18.80;47.30;;;;;;5035378;28;20183;-63
2021/05/08 05:36:31;;;;;;;1.40;1.30;;;18.80;47.40;;;;;;5054477;28;20182;-66
2021/05/08 05:38:56;;;;;;;1.02;1.02;;;18.70;47.60;;;;;;5053924;28;20262;-66
2021/05/08 05:41:25;;;;;;;1.30;1.20;;;18.70;47.70;;;;;;5054037;28;20301;-66
2021/05/08 05:43:50;;;;;;;1.30;1.10;;;18.60;47.80;;;;;;5053245;28;20215;-66
2021/05/08 05:46:16;;;;;;;1.05;1.00;;;18.60;47.80;;;;;;5053079;28;20668;-65
2021/05/08 05:48:41;;;;;;;1.13;1.10;;;18.60;47.90;;;;;;5054464;28;20168;-65
2021/05/08 05:51:08;;;;;;;0.98;0.98;;;18.60;47.90;;;;;;5055218;28;20171;-64
2021/05/08 05:53:34;;;;;;;1.40;1.10;;;18.60;48.00;;;;;;5053790;28;20582;-64
2021/05/08 05:55:59;;;;;;;1.13;1.08;;;18.60;48.00;;;;;;5054268;28;20179;-65
2021/05/08 05:58:25;;;;;;;1.05;1.00;;;18.60;48.00;;;;;;5053582;28;20167;-65
2021/05/08 06:00:50;;;;;;;1.10;1.10;;;18.60;48.10;;;;;;5052517;28;20214;-66
2021/05/08 06:03:16;;;;;;;1.38;1.00;;;18.50;48.20;;;;;;5053458;28;20172;-65
2021/05/08 06:05:42;;;;;;;1.05;1.02;;;18.40;48.40;;;;;;5053218;28;20225;-65
2021/05/08 06:08:11;;;;;;;1.40;1.30;;;18.30;48.50;;;;;;5052606;28;20652;-74
2021/05/08 06:10:37;;;;;;;2.45;1.58;;;18.30;48.70;;;;;;5052905;28;20214;-73
2021/05/08 06:13:03;;;;;;;1.50;1.40;;;18.30;48.80;;;;;;5053075;28;20175;-65
2021/05/08 06:15:29;;;;;;;2.10;1.30;;;18.30;48.90;;;;;;5052292;28;20186;-65
2021/05/08 06:17:55;;;;;;;3.90;1.77;;;18.30;48.80;;;;;;5052615;28;20641;-68
2021/05/08 06:20:21;;;;;;;3.35;1.90;;;18.40;49.10;;;;;;5035313;28;20239;-66
2021/05/08 06:22:46;;;;;;;2.05;1.80;;;18.40;49.10;;;;;;5051993;28;20193;-66
2021/05/08 06:25:12;;;;;;;1.88;1.52;;;18.40;49.40;;;;;;5052988;28;20207;-66
2021/05/08 06:27:39;;;;;;;3.13;1.95;;;18.40;49.50;;;;;;5052587;28;20163;-65
2021/05/08 06:30:05;;;;;;;3.42;2.08;;;18.40;49.60;;;;;;5034129;28;20776;-65
2021/05/08 06:32:30;;;;;;;2.28;1.90;;;18.50;49.60;;;;;;5052652;28;20175;-65
2021/05/08 06:34:56;;;;;;;3.45;1.90;;;18.50;49.50;;;;;;5052707;28;20183;-67
2021/05/08 06:37:21;;;;;;;3.42;1.88;;;18.60;50.20;;;;;;5052151;28;20163;-67
2021/05/08 06:39:47;;;;;;;2.80;1.50;;;18.50;49.60;;;;;;5052467;28;20206;-66
2021/05/08 06:42:12;;;;;;;3.72;1.83;;;18.60;49.60;;;;;;5052191;28;20236;-67
2021/05/08 06:44:38;;;;;;;4.57;1.92;;;18.60;49.60;;;;;;5052638;28;20273;-68
2021/05/08 06:47:03;;;;;;;2.60;1.80;;;18.60;49.60;;;;;;5052885;28;20187;-77
2021/05/08 06:49:29;;;;;;;4.95;2.28;;;18.70;49.50;;;;;;5052151;28;20178;-72
2021/05/08 06:51:54;;;;;;;2.95;1.92;;;18.70;49.60;;;;;;5052709;28;20173;-73
2021/05/08 06:54:20;;;;;;;2.30;1.63;;;18.70;49.60;;;;;;5053365;28;20171;-71
2021/05/08 06:56:45;;;;;;;3.67;1.63;;;18.70;49.60;;;;;;5055623;28;20528;-76
2021/05/08 06:59:11;;;;;;;3.70;1.77;;;18.80;49.70;;;;;;5056689;28;20183;-73
2021/05/08 07:01:36;;;;;;;4.75;2.50;;;18.80;49.70;;;;;;5056197;28;20264;-69
2021/05/08 07:04:02;;;;;;;3.70;2.17;;;18.80;49.60;;;;;;5055960;28;20194;-69
2021/05/08 07:06:28;;;;;;;2.50;2.05;;;18.90;49.60;;;;;;5056475;28;20175;-67
2021/05/08 07:08:53;;;;;;;6.22;1.67;;;18.90;49.70;;;;;;5056399;28;20213;-65
2021/05/08 07:11:19;;;;;;;2.53;1.40;;;18.90;49.70;;;;;;5055873;28;20179;-65
2021/05/08 07:13:45;;;;;;;2.22;1.45;;;18.80;49.70;;;;;;5055917;28;20583;-67
2021/05/08 07:16:10;;;;;;;3.40;1.38;;;18.80;49.90;;;;;;5056458;28;20170;-65
2021/05/08 07:18:36;;;;;;;3.45;1.33;;;18.70;50.00;;;;;;5055334;28;20172;-66
2021/05/08 07:21:02;;;;;;;1.45;1.20;;;18.70;50.20;;;;;;5055881;28;20276;-66
2021/05/08 07:23:27;;;;;;;2.63;1.75;;;18.70;50.20;;;;;;5056164;28;20167;-66
2021/05/08 07:25:53;;;;;;;5.20;1.55;;;18.70;50.20;;;;;;5055145;28;20267;-66
2021/05/08 07:28:20;;;;;;;1.75;1.40;;;18.70;50.20;;;;;;5056343;28;20192;-66
2021/05/08 07:30:46;;;;;;;5.10;1.52;;;18.70;50.30;;;;;;5055764;28;20577;-66
2021/05/08 07:33:11;;;;;;;4.60;1.88;;;18.60;50.20;;;;;;5055564;28;20644;-66
2021/05/08 07:35:37;;;;;;;4.28;1.60;;;18.60;50.30;;;;;;5055940;28;20171;-73
2021/05/08 07:38:03;;;;;;;4.50;1.60;;;18.50;50.40;;;;;;5055872;28;20660;-65
2021/05/08 07:40:30;;;;;;;3.50;1.90;;;18.40;50.40;;;;;;5055190;28;20207;-66
2021/05/08 07:42:59;;;;;;;4.82;2.00;;;18.40;50.40;;;;;;5055687;28;20645;-66
2021/05/08 07:45:25;;;;;;;2.25;1.77;;;18.30;50.40;;;;;;5055799;28;20183;-66
2021/05/08 07:47:50;;;;;;;2.45;1.67;;;18.30;50.50;;;;;;5055267;28;20183;-66
2021/05/08 07:50:16;;;;;;;2.92;1.70;;;18.30;50.40;;;;;;5055699;28;20518;-67
2021/05/08 07:52:41;;;;;;;3.65;1.50;;;18.40;50.30;;;;;;5054816;28;20171;-66
2021/05/08 07:55:07;;;;;;;2.47;1.70;;;18.40;50.30;;;;;;5055476;28;20175;-66
2021/05/08 07:57:33;;;;;;;4.22;1.85;;;18.40;50.90;;;;;;5055198;28;20649;-66
2021/05/08 07:59:58;;;;;;;4.53;2.28;;;18.30;50.20;;;;;;5054988;28;20179;-66
2021/05/08 08:02:24;;;;;;;3.53;1.83;;;18.30;50.30;;;;;;5055480;28;20179;-67
2021/05/08 08:04:49;;;;;;;2.65;2.40;;;18.20;50.30;;;;;;5055296;28;20174;-66
2021/05/08 08:07:15;;;;;;;3.55;2.50;;;18.20;50.00;;;;;;5053543;28;20183;-66
2021/05/08 08:09:44;;;;;;;2.40;2.20;;;18.20;49.80;;;;;;5055065;28;20171;-65
2021/05/08 08:12:10;;;;;;;2.40;2.20;;;18.10;49.90;;;;;;5055244;28;20171;-65
2021/05/08 08:14:36;;;;;;;3.33;2.25;;;18.10;49.90;;;;;;5054457;28;20179;-66
2021/05/08 08:17:02;;;;;;;3.60;2.35;;;18.20;50.00;;;;;;5055323;28;20503;-66
2021/05/08 08:19:27;;;;;;;2.60;2.10;;;18.20;49.80;;;;;;5055075;28;20306;-66
2021/05/08 08:21:53;;;;;;;3.65;2.05;;;18.20;49.70;;;;;;5054091;28;20545;-65
2021/05/08 08:24:18;;;;;;;3.42;2.00;;;18.20;49.60;;;;;;5055090;28;20245;-74
2021/05/08 08:26:44;;;;;;;4.32;2.90;;;18.20;49.60;;;;;;5054729;28;20641;-67
2021/05/08 08:29:09;;;;;;;3.90;2.08;;;18.10;49.90;;;;;;5054246;28;20173;-65
2021/05/08 08:31:35;;;;;;;3.03;1.85;;;18.20;49.90;;;;;;5054779;28;20194;-66
2021/05/08 08:34:00;;;;;;;3.00;1.63;;;18.10;50.10;;;;;;5054702;28;20178;-68
2021/05/08 08:36:26;;;;;;;5.43;1.92;;;18.20;50.10;;;;;;5054178;28;20633;-68
2021/05/08 08:38:51;;;;;;;3.92;1.90;;;18.20;50.20;;;;;;5054602;28;20229;-67
2021/05/08 08:41:17;;;;;;;4.38;1.70;;;18.30;50.30;;;;;;5054543;28;20238;-68
2021/05/08 08:43:43;;;;;;;6.45;1.70;;;18.30;50.20;;;;;;5035947;28;20533;-68
2021/05/08 08:46:10;;;;;;;4.85;1.77;;;18.40;50.20;;;;;;5054756;28;20224;-68
2021/05/08 08:48:37;;;;;;;3.20;1.70;;;18.40;50.20;;;;;;5036825;28;20258;-68
2021/05/08 08:51:02;;;;;;;3.47;1.60;;;18.40;50.20;;;;;;5036311;28;20175;-66
2021/05/08 08:53:28;;;;;;;3.33;1.70;;;18.40;50.20;;;;;;5054566;28;20637;-66
2021/05/08 08:55:55;;;;;;;3.95;1.52;;;18.40;50.30;;;;;;5053532;28;20170;-66
2021/05/08 08:58:27;;;;;;;3.10;1.50;;;18.40;50.30;;;;;;5037028;28;20183;-67
2021/05/08 09:00:59;;;;;;;3.33;1.67;;;18.40;50.40;;;;;;5037498;28;20218;-67
2021/05/08 09:03:25;;;;;;;3.03;1.65;;;18.40;50.40;;;;;;5053694;28;20201;-68
2021/05/08 09:05:51;;;;;;;2.33;1.98;;;18.40;50.40;;;;;;5053931;28;20685;-67
2021/05/08 09:08:16;;;;;;;3.08;1.42;;;18.50;50.50;;;;;;5054332;28;20175;-67
2021/05/08 09:10:42;;;;;;;4.05;1.90;;;18.50;50.40;;;;;;5053002;28;20652;-68
2021/05/08 09:13:14;;;;;;;3.47;1.77;;;18.50;50.40;;;;;;5054069;28;20171;-66
2021/05/08 09:15:41;;;;;;;3.03;1.52;;;18.60;50.40;;;;;;5053949;28;20178;-66
2021/05/08 09:18:09;;;;;;;2.38;1.63;;;18.60;50.50;;;;;;5051724;28;20591;-67
2021/05/08 09:20:45;;;;;;;5.40;1.67;;;18.60;50.40;;;;;;5052610;28;20249;-68
2021/05/08 09:23:23;;;;;;;3.83;1.70;;;18.60;50.50;;;;;;5051199;28;20183;-68
2021/05/08 09:25:59;;;;;;;1.80;1.33;;;18.60;50.50;;;;;;5049138;28;20229;-67
2021/05/08 09:28:26;;;;;;;2.40;1.63;;;18.60;50.50;;;;;;5050978;28;20175;-68
2021/05/08 09:30:52;;;;;;;3.80;1.23;;;18.60;50.50;;;;;;5052788;28;20203;-68
2021/05/08 09:33:21;;;;;;;2.63;1.73;;;18.60;50.50;;;;;;5052116;28;20209;-67
2021/05/08 09:36:08;;;;;;;1.48;1.38;;;18.60;50.50;;;;;;5052910;28;20270;-68
2021/05/08 09:38:36;;;;;;;3.50;1.30;;;18.60;50.50;;;;;;5051589;28;20179;-68
2021/05/08 09:41:03;;;;;;;3.25;1.42;;;18.60;50.60;;;;;;5052880;28;20211;-68
2021/05/08 09:43:28;;;;;;;1.38;1.20;;;18.60;50.60;;;;;;5053568;28;20521;-69
2021/05/08 09:45:54;;;;;;;3.13;1.42;;;18.60;50.70;;;;;;5052012;28;20642;-68
2021/05/08 09:48:25;;;;;;;4.68;1.75;;;18.60;50.70;;;;;;5053252;28;20182;-73
2021/05/08 09:50:51;;;;;;;2.25;1.70;;;18.60;50.80;;;;;;5051370;28;20179;-73
2021/05/08 09:53:29;;;;;;;3.30;1.63;;;18.50;50.70;;;;;;5052754;28;20167;-73
2021/05/08 09:55:55;;;;;;;3.97;1.85;;;18.50;50.70;;;;;;5052784;28;20174;-72
2021/05/08 09:58:24;;;;;;;2.03;1.60;;;18.40;50.60;;;;;;5053177;28;20545;-72
2021/05/08 10:00:51;;;;;;;3.45;1.35;;;18.40;50.50;;;;;;5052095;28;20586;-71
2021/05/08 10:03:16;;;;;;;1.58;1.40;;;18.40;50.50;;;;;;5052824;28;20183;-72
2021/05/08 10:05:57;;;;;;;5.85;2.00;;;18.30;50.40;;;;;;5052951;28;20194;-73
2021/05/08 10:08:23;;;;;;;2.10;1.42;;;18.30;50.40;;;;;;5052207;28;20265;-72
2021/05/08 10:10:48;;;;;;;1.92;1.70;;;18.30;50.30;;;;;;5052711;28;20317;-71
2021/05/08 10:13:14;;;;;;;3.13;2.20;;;18.30;50.30;;;;;;5034445;28;20951;-70
2021/05/08 10:15:40;;;;;;;1.83;1.40;;;18.30;50.20;;;;;;5052841;28;20179;-71
2021/05/08 10:18:09;;;;;;;1.92;1.50;;;18.30;50.20;;;;;;5053087;28;20175;-72
2021/05/08 10:20:35;;;;;;;3.55;1.50;;;18.20;50.20;;;;;;5033809;28;20230;-73
2021/05/08 10:23:06;;;;;;;2.78;1.60;;;18.20;50.10;;;;;;5018863;28;20171;-72
2021/05/08 10:25:32;;;;;;;2.88;1.67;;;18.20;50.10;;;;;;5052122;28;20171;-71
2021/05/08 10:27:57;;;;;;;4.00;1.48;;;18.20;50.00;;;;;;5052176;28;20258;-69
2021/05/08 10:30:33;;;;;;;1.60;1.50;;;18.20;50.00;;;;;;5052318;28;20171;-71
2021/05/08 10:32:59;;;;;;;2.92;1.60;;;18.20;50.00;;;;;;5052805;28;20241;-70
2021/05/08 10:35:44;;;;;;;2.22;1.48;;;18.20;50.00;;;;;;5052044;28;20254;-66
2021/05/08 10:38:22;;;;;;;3.03;1.65;;;18.20;50.10;;;;;;5052671;28;20171;-66
2021/05/08 10:40:48;;;;;;;2.03;1.60;;;18.20;50.00;;;;;;5052491;28;20206;-66
2021/05/08 10:43:43;;;;;;;2.53;1.77;;;18.10;49.90;;;;;;5051926;28;20173;-66
2021/05/08 10:46:09;;;;;;;1.98;1.70;;;18.20;49.70;;;;;;5052640;28;20171;-65
2021/05/08 10:48:35;;;;;;;2.78;1.60;;;18.10;49.60;;;;;;5051592;28;20668;-67
2021/05/08 10:51:01;;;;;;;1.65;1.52;;;18.20;49.60;;;;;;5035119;28;20167;-67
2021/05/08 10:53:40;;;;;;;1.63;1.42;;;18.20;49.60;;;;;;5052715;28;20310;-67
2021/05/08 10:56:06;;;;;;;1.98;1.55;;;18.20;49.60;;;;;;5051873;28;20175;-66
2021/05/08 10:58:33;;;;;;;4.63;2.00;;;18.20;49.50;;;;;;5051994;28;20175;-71
2021/05/08 11:01:09;;;;;;;2.58;1.48;;;18.20;49.60;;;;;;5052102;28;20211;-71
2021/05/08 11:03:57;;;;;;;3.13;1.45;;;18.20;49.60;;;;;;5051637;28;20205;-74
2021/05/08 11:06:24;;;;;;;4.68;1.60;;;18.20;49.60;;;;;;5042939;28;20206;-72
2021/05/08 11:08:50;;;;;;;1.55;1.40;;;18.10;49.70;;;;;;5034534;28;20179;-73
2021/05/08 11:11:17;;;;;;;2.20;1.50;;;18.10;49.80;;;;;;5051171;28;20171;-70
2021/05/08 11:13:42;;;;;;;1.80;1.35;;;18.10;49.80;;;;;;5051948;28;20280;-71
2021/05/08 11:16:18;;;;;;;3.05;1.50;;;18.00;49.80;;;;;;5052582;28;20662;-68
2021/05/08 11:18:48;;;;;;;2.03;1.40;;;18.00;49.90;;;;;;5051547;28;20210;-68
2021/05/08 11:21:13;;;;;;;2.83;1.60;;;18.00;49.90;;;;;;5052011;28;20258;-68
2021/05/08 11:23:52;;;;;;;3.33;1.65;;;18.00;49.90;;;;;;5051397;28;20183;-66
2021/05/08 11:26:20;;;;;;;3.35;1.30;;;18.00;50.00;;;;;;5052136;28;20637;-66
2021/05/08 11:28:58;;;;;;;3.20;1.40;;;18.00;50.00;;;;;;5052230;28;20171;-67
2021/05/08 11:31:33;;;;;;;4.95;1.50;;;18.00;49.90;;;;;;5051691;28;20575;-68
2021/05/08 11:34:26;;;;;;;1.90;1.58;;;18.00;49.90;;;;;;5052285;28;20190;-68
2021/05/08 11:36:58;;;;;;;2.17;1.30;;;18.00;50.00;;;;;;5049301;28;20597;-70
2021/05/08 11:39:27;;;;;;;3.90;1.30;;;18.00;50.00;;;;;;5051640;28;20179;-69
2021/05/08 11:41:54;;;;;;;4.45;1.45;;;18.10;50.20;;;;;;5054826;28;20673;-70
2021/05/08 11:44:24;;;;;;;7.20;1.75;;;18.10;50.10;;;;;;5055921;28;20174;-72
2021/05/08 11:47:06;;;;;;;4.75;1.40;;;18.10;50.20;;;;;;5054606;28;20183;-67
2021/05/08 11:49:31;;;;;;;7.55;1.73;;;18.10;50.20;;;;;;5055560;28;20175;-67
2021/05/08 11:51:57;;;;;;;4.07;1.35;;;18.10;50.20;;;;;;5055179;28;20178;-68
2021/05/08 11:54:23;;;;;;;3.47;1.38;;;18.20;50.30;;;;;;5055738;28;20207;-67
2021/05/08 11:56:48;;;;;;;5.10;1.60;;;18.20;50.20;;;;;;5055359;28;20254;-68
2021/05/08 11:59:14;;;;;;;1.60;1.50;;;18.40;50.20;;;;;;5054745;28;20175;-68
2021/05/08 12:01:39;;;;;;;2.83;1.35;;;18.50;50.00;;;;;;5037085;28;20235;-67
2021/05/08 12:04:05;;;;;;;4.35;1.25;;;18.70;49.80;;;;;;5055207;28;20692;-68
2021/05/08 12:06:31;;;;;;;4.50;1.20;;;18.90;49.60;;;;;;5054525;28;20217;-64
2021/05/08 12:08:57;;;;;;;1.88;1.30;;;19.10;49.20;;;;;;5055570;28;20194;-68
2021/05/08 12:11:23;;;;;;;3.13;1.17;;;19.30;48.40;;;;;;5037502;28;20691;-67
2021/05/08 12:13:48;;;;;;;1.98;0.95;;;19.60;48.40;;;;;;5054323;28;20225;-65
2021/05/08 12:16:14;;;;;;;1.83;1.00;;;19.80;48.00;;;;;;5037620;28;20183;-67
2021/05/08 12:18:42;;;;;;;1.85;1.00;;;20.10;47.60;;;;;;5037099;28;20186;-70
2021/05/08 12:21:10;;;;;;;4.15;1.40;;;20.10;47.50;;;;;;5036750;28;20234;-69
2021/05/08 12:23:36;;;;;;;2.25;1.23;;;20.20;47.50;;;;;;5037644;28;20175;-72
2021/05/08 12:26:12;;;;;;;1.45;1.23;;;20.30;47.30;;;;;;5037210;28;20194;-73
2021/05/08 12:29:01;;;;;;;2.72;1.20;;;20.30;47.40;;;;;;5053924;28;20650;-71
2021/05/08 12:31:28;;;;;;;2.25;1.10;;;20.20;47.50;;;;;;5054430;28;20191;-72
2021/05/08 12:33:58;;;;;;;1.27;0.93;;;20.20;47.50;;;;;;5053922;28;20548;-70
2021/05/08 12:36:23;;;;;;;1.20;1.10;;;20.30;47.50;;;;;;5054747;28;20187;-72
2021/05/08 12:38:51;;;;;;;2.08;1.00;;;20.20;47.50;;;;;;5054466;28;20641;-70
2021/05/08 12:41:33;;;;;;;2.42;1.50;;;20.30;47.50;;;;;;5054173;28;20207;-71
2021/05/08 12:44:09;;;;;;;3.25;1.25;;;20.20;47.70;;;;;;5054896;28;20237;-71
2021/05/08 12:46:58;;;;;;;2.92;1.13;;;20.10;47.80;;;;;;5054441;28;20182;-71